Urb Dorado, Puerto Rico
Current Conditions -  °F | °C
As of 3:56 PM on Saturday 25 Oct 2014 (Local Time) from TJSJ Reporting Station
Scattered Clouds Scattered Clouds  
Wind Chill: 89°   Ceiling: Unl
Heat Index: 97°   Visibility: 10mi
Dew Point: 73°   Wind: 13mph
Humidity: 59%   Direction: 140°SE
Pressure: 29.84"   Gusts: 21mph
Location:  17.9849°N, 66.1175°W
Report Text: TJSJ 251956Z 14011G18KT 10SM FEW037 SCT150 32/23 A2984 RMK AO2 SLP102 T03170228
Loading
Personal Weather Stations






























Interactive Weather Map
Tropical Storm Tracking
New forecast layout! Learn more

10-Day Weather Forecast

Advertisements
Track Severe Weather on mobile